< < Back
Terminal Aerodrome Forecast


Current Version              Previous Versions:   1  2  3  4  5  6  7  8  9  

Terminal Aerodrome Forecast

305
FTUS42 KFFC 290534
TAFMCN
TAF
KMCN 290534Z 2906/3006 00000KT P6SM SKC
     FM291300 06006KT P6SM SKC
     FM291700 10006KT P6SM SKC
     FM292000 15005KT P6SM SKC
     FM292200 17004KT P6SM FEW045=

Latest METAR

134
SAUS80 KWBC 290700
MTRMCN
METAR KMCN 290653Z AUTO 00000KT 10SM CLR 00/M03 A3030 RMK AO2 SLP260
T00001033 TSNO


USA.gov is the U.S. government's official web portal to all federal, state and local government web resources and services.